createdAt,value
2023-03-31T00:00:57.972Z,10.30
2023-03-31T00:03:26.724Z,10.30
2023-03-31T00:06:00.442Z,10.30
2023-03-31T00:08:30.697Z,10.30
2023-03-31T00:11:00.671Z,10.20
2023-03-31T00:13:29.810Z,10.20
2023-03-31T00:15:59.092Z,10.30
2023-03-31T00:18:27.440Z,10.20
2023-03-31T00:20:58.220Z,10.20
2023-03-31T00:23:28.946Z,10.20
2023-03-31T00:25:57.363Z,10.10
2023-03-31T00:28:25.810Z,10.20
2023-03-31T00:30:54.113Z,10.10
2023-03-31T00:33:22.408Z,10.10
2023-03-31T00:35:53.140Z,10.20
2023-03-31T00:38:22.035Z,10.30
2023-03-31T00:40:53.936Z,10.30
2023-03-31T00:43:29.827Z,10.30
2023-03-31T00:46:07.032Z,10.40
2023-03-31T00:48:38.713Z,10.40
2023-03-31T00:51:08.762Z,10.40
2023-03-31T00:53:38.725Z,10.50
2023-03-31T00:56:13.939Z,10.50
2023-03-31T00:58:45.804Z,10.50
2023-03-31T01:01:20.072Z,10.50
2023-03-31T01:03:50.447Z,10.50
2023-03-31T01:06:20.069Z,10.50
2023-03-31T01:08:51.066Z,10.50
2023-03-31T01:11:26.266Z,10.50
2023-03-31T01:13:57.930Z,10.40
2023-03-31T01:16:26.421Z,10.40
2023-03-31T01:18:57.417Z,10.50
2023-03-31T01:22:13.056Z,10.50
2023-03-31T01:25:08.460Z,10.50
2023-03-31T01:27:59.154Z,10.40
2023-03-31T01:30:54.472Z,10.40
2023-03-31T01:34:05.364Z,10.40
2023-03-31T01:36:58.878Z,10.40
2023-03-31T01:39:58.349Z,10.30
2023-03-31T01:42:32.187Z,10.30
2023-03-31T01:45:12.177Z,10.30
2023-03-31T01:47:46.724Z,10.30
2023-03-31T01:50:23.701Z,10.20
2023-03-31T01:53:00.563Z,10.20
2023-03-31T01:55:36.765Z,10.20
2023-03-31T01:58:12.415Z,10.10
2023-03-31T02:00:46.722Z,10.10
2023-03-31T02:03:19.330Z,10.10
2023-03-31T02:05:52.418Z,10.20
2023-03-31T02:08:24.504Z,10.20
2023-03-31T02:10:55.864Z,10.20
2023-03-31T02:13:26.684Z,10.20
2023-03-31T02:15:58.396Z,10.20
2023-03-31T02:18:33.057Z,10.20
2023-03-31T02:21:03.351Z,10.20
2023-03-31T02:23:33.860Z,10.20
2023-03-31T02:26:08.268Z,10.10
2023-03-31T02:28:37.340Z,10.10
2023-03-31T02:31:22.192Z,10.00
2023-03-31T02:33:50.892Z,9.90
2023-03-31T02:36:21.347Z,9.80
2023-03-31T02:38:54.077Z,9.80
2023-03-31T02:41:23.887Z,9.80
2023-03-31T02:43:52.237Z,9.70
2023-03-31T02:46:20.779Z,9.70
2023-03-31T02:48:52.778Z,9.60
2023-03-31T02:52:00.387Z,9.60
2023-03-31T02:54:49.900Z,9.60
2023-03-31T02:57:33.827Z,9.50
2023-03-31T03:00:13.139Z,9.50
2023-03-31T03:02:59.248Z,9.50
2023-03-31T03:05:36.860Z,9.50
2023-03-31T03:08:37.510Z,9.50
2023-03-31T03:11:17.864Z,9.60
2023-03-31T03:13:52.471Z,9.60
2023-03-31T03:16:25.456Z,9.60
2023-03-31T03:18:59.466Z,9.60
2023-03-31T03:21:27.818Z,9.70
2023-03-31T03:23:56.301Z,9.70
2023-03-31T03:26:27.950Z,9.70
2023-03-31T03:28:58.334Z,9.70
2023-03-31T03:31:26.796Z,9.80
2023-03-31T03:33:55.887Z,9.80
2023-03-31T03:36:24.177Z,9.70
2023-03-31T03:38:52.561Z,9.70
2023-03-31T03:41:22.685Z,9.70
2023-03-31T03:43:51.019Z,9.70
2023-03-31T03:46:20.562Z,9.70
2023-03-31T03:48:48.890Z,9.70
2023-03-31T03:51:17.138Z,9.70
2023-03-31T03:53:45.682Z,9.70
2023-03-31T03:56:13.912Z,9.70
2023-03-31T03:58:42.336Z,9.70
2023-03-31T04:01:10.634Z,9.70
2023-03-31T04:03:40.293Z,9.60
2023-03-31T04:06:08.947Z,9.70
2023-03-31T04:08:37.992Z,9.70
2023-03-31T04:11:15.194Z,9.70
2023-03-31T04:13:44.500Z,9.70
2023-03-31T04:16:13.626Z,9.70
2023-03-31T04:18:43.586Z,9.70
2023-03-31T04:21:15.584Z,9.70
2023-03-31T04:23:46.527Z,9.70
2023-03-31T04:26:15.604Z,9.60
2023-03-31T04:28:46.535Z,9.60
2023-03-31T04:31:16.660Z,9.60
2023-03-31T04:33:47.960Z,9.60
2023-03-31T04:36:17.957Z,9.60
2023-03-31T04:38:47.772Z,9.60
2023-03-31T04:41:16.112Z,9.60
2023-03-31T04:43:44.807Z,9.50
2023-03-31T04:46:13.482Z,9.50
2023-03-31T04:48:42.182Z,9.50
2023-03-31T04:51:11.811Z,9.60
2023-03-31T04:53:40.077Z,9.60
2023-03-31T04:56:08.860Z,9.60
2023-03-31T04:58:37.390Z,9.60
2023-03-31T05:01:07.423Z,9.60
2023-03-31T05:03:36.205Z,9.60
2023-03-31T05:06:04.833Z,9.60
2023-03-31T05:08:34.588Z,9.70
2023-03-31T05:11:04.576Z,9.60
2023-03-31T05:13:32.897Z,9.60
2023-03-31T05:16:07.885Z,9.60
2023-03-31T05:18:36.862Z,9.60
2023-03-31T05:21:13.709Z,9.60
2023-03-31T05:23:44.601Z,9.50
2023-03-31T05:26:13.651Z,9.50
2023-03-31T05:28:42.915Z,9.50
2023-03-31T05:31:12.946Z,9.50
2023-03-31T05:33:42.184Z,9.60
2023-03-31T05:36:12.731Z,9.60
2023-03-31T05:38:43.084Z,9.60
2023-03-31T05:41:12.150Z,9.70
2023-03-31T05:43:40.692Z,9.70
2023-03-31T05:46:09.075Z,9.70
2023-03-31T05:48:38.341Z,9.60
2023-03-31T05:51:06.945Z,9.70
2023-03-31T05:53:36.175Z,9.70
2023-03-31T05:56:08.089Z,9.60
2023-03-31T05:58:37.145Z,9.60
2023-03-31T06:01:07.587Z,9.50
2023-03-31T06:03:37.223Z,9.50
2023-03-31T06:06:08.024Z,9.50
2023-03-31T06:08:37.829Z,9.50
2023-03-31T06:11:09.069Z,9.50
2023-03-31T06:13:38.452Z,9.50
2023-03-31T06:16:07.559Z,9.60
2023-03-31T06:18:37.202Z,9.50
2023-03-31T06:21:06.083Z,9.50
2023-03-31T06:23:35.278Z,9.50
2023-03-31T06:26:19.662Z,9.50
2023-03-31T06:28:48.038Z,9.50
2023-03-31T06:31:18.428Z,9.50
2023-03-31T06:33:47.330Z,9.50
2023-03-31T06:36:17.814Z,9.50
2023-03-31T06:38:46.921Z,9.50
2023-03-31T06:41:18.327Z,9.50
2023-03-31T06:43:46.852Z,9.50
2023-03-31T06:46:15.929Z,9.50
2023-03-31T06:48:44.247Z,9.40
2023-03-31T06:51:12.969Z,9.50
2023-03-31T06:53:41.335Z,9.40
2023-03-31T06:56:09.778Z,9.30
2023-03-31T06:58:39.558Z,9.40
2023-03-31T07:01:08.531Z,9.30
2023-03-31T07:03:37.247Z,9.30
2023-03-31T07:06:05.635Z,9.30
2023-03-31T07:08:34.104Z,9.30
2023-03-31T07:11:03.001Z,9.30
2023-03-31T07:13:31.567Z,9.30
2023-03-31T07:16:01.127Z,9.30
2023-03-31T07:18:34.253Z,9.30
2023-03-31T07:21:05.721Z,9.20
2023-03-31T07:23:36.731Z,9.30
2023-03-31T07:26:06.698Z,9.30
2023-03-31T07:28:35.268Z,9.30
2023-03-31T07:31:11.170Z,9.20
2023-03-31T07:33:39.599Z,9.20
2023-03-31T07:36:12.782Z,9.20
2023-03-31T07:38:42.551Z,9.20
2023-03-31T07:41:13.087Z,9.20
2023-03-31T07:43:41.796Z,9.20
2023-03-31T07:46:17.931Z,9.20
2023-03-31T07:48:47.504Z,9.20
2023-03-31T07:51:16.912Z,9.30
2023-03-31T07:53:45.561Z,9.40
2023-03-31T07:56:14.296Z,9.50
2023-03-31T07:58:42.641Z,9.50
2023-03-31T08:01:12.186Z,9.50
2023-03-31T08:03:42.048Z,9.60
2023-03-31T08:06:10.600Z,9.70
2023-03-31T08:08:43.188Z,9.80
2023-03-31T08:11:11.572Z,9.90
2023-03-31T08:13:39.837Z,10.00
2023-03-31T08:16:08.484Z,10.00
2023-03-31T08:18:37.100Z,10.00
2023-03-31T08:21:06.893Z,10.10
2023-03-31T08:23:35.328Z,10.20
2023-03-31T08:26:14.443Z,10.30
2023-03-31T08:28:45.026Z,10.50
2023-03-31T08:31:16.178Z,10.70
2023-03-31T08:33:45.223Z,10.90
2023-03-31T08:36:14.921Z,11.00
2023-03-31T08:38:46.010Z,11.30
2023-03-31T08:41:31.158Z,11.70
2023-03-31T08:44:01.715Z,12.00
2023-03-31T08:46:33.709Z,12.20
2023-03-31T08:49:03.823Z,12.30
2023-03-31T08:51:39.050Z,12.40
2023-03-31T08:54:15.033Z,12.50
2023-03-31T08:56:48.332Z,12.80
2023-03-31T08:59:24.762Z,13.00
2023-03-31T09:02:00.925Z,13.10
2023-03-31T09:04:51.470Z,13.20
2023-03-31T09:07:27.127Z,13.20
2023-03-31T09:10:03.713Z,13.20
2023-03-31T09:12:42.729Z,13.20
2023-03-31T09:15:15.935Z,13.10
2023-03-31T09:17:46.555Z,13.20
2023-03-31T09:20:19.761Z,13.30
2023-03-31T09:22:55.653Z,13.40
2023-03-31T09:25:29.306Z,13.40
2023-03-31T09:28:01.054Z,13.50
2023-03-31T09:30:30.975Z,13.50
2023-03-31T09:33:12.151Z,13.50
2023-03-31T09:35:40.715Z,13.50
2023-03-31T09:38:12.973Z,13.60
2023-03-31T09:40:42.263Z,13.90
2023-03-31T09:43:22.470Z,14.30
2023-03-31T09:46:07.636Z,14.80
2023-03-31T09:48:41.094Z,15.30
2023-03-31T09:51:17.559Z,15.80
2023-03-31T09:53:51.389Z,16.00
2023-03-31T09:56:35.956Z,16.20
2023-03-31T09:59:05.723Z,16.10
2023-03-31T10:01:37.254Z,16.00
2023-03-31T10:04:10.131Z,15.70
2023-03-31T10:06:43.198Z,15.40
2023-03-31T10:09:13.480Z,15.60
2023-03-31T10:11:54.205Z,15.60
2023-03-31T10:14:27.887Z,15.80
2023-03-31T10:16:58.661Z,15.90
2023-03-31T10:19:28.743Z,15.80
2023-03-31T10:21:59.340Z,15.50
2023-03-31T10:24:40.484Z,15.10
2023-03-31T10:27:21.390Z,14.80
2023-03-31T10:29:58.061Z,14.50
2023-03-31T10:32:31.306Z,14.30
2023-03-31T10:35:10.708Z,14.10
2023-03-31T10:37:43.001Z,13.80
2023-03-31T10:40:22.816Z,13.40
2023-03-31T10:43:06.301Z,13.00
2023-03-31T10:45:43.718Z,12.60
2023-03-31T10:48:20.811Z,12.10
2023-03-31T10:50:49.553Z,11.50
2023-03-31T10:53:19.727Z,11.10
2023-03-31T10:56:00.037Z,10.80
2023-03-31T10:58:52.026Z,10.60
2023-03-31T11:01:39.528Z,10.50
2023-03-31T11:04:34.937Z,10.70
2023-03-31T11:07:13.571Z,11.00
2023-03-31T11:09:55.104Z,11.40
2023-03-31T11:12:31.100Z,11.90
2023-03-31T11:15:11.529Z,12.40
2023-03-31T11:18:01.105Z,13.00
2023-03-31T11:20:36.964Z,13.60
2023-03-31T11:23:19.957Z,14.00
2023-03-31T11:25:58.835Z,14.60
2023-03-31T11:28:45.633Z,15.20
2023-03-31T11:31:28.449Z,15.80
2023-03-31T11:34:19.319Z,16.30
2023-03-31T11:37:08.444Z,16.70
2023-03-31T11:39:50.155Z,17.10
2023-03-31T11:42:23.934Z,17.20
2023-03-31T11:44:58.916Z,17.50
2023-03-31T11:47:31.608Z,17.30
2023-03-31T11:50:03.928Z,17.00
2023-03-31T11:52:35.307Z,16.80
2023-03-31T11:55:08.992Z,16.40
2023-03-31T11:57:42.906Z,16.20
2023-03-31T12:00:19.100Z,15.90
2023-03-31T12:02:53.280Z,15.50
2023-03-31T12:05:22.977Z,15.10
2023-03-31T12:07:59.877Z,14.70
2023-03-31T12:10:35.087Z,14.50
2023-03-31T12:13:14.872Z,14.60
2023-03-31T12:15:53.654Z,14.70
2023-03-31T12:18:25.404Z,14.70
2023-03-31T12:20:56.557Z,14.40
2023-03-31T12:23:28.623Z,14.10
2023-03-31T12:26:04.084Z,13.30
2023-03-31T12:28:34.384Z,12.40
2023-03-31T12:31:10.373Z,12.00
2023-03-31T12:33:43.286Z,11.90
2023-03-31T12:36:27.958Z,12.00
2023-03-31T12:39:06.560Z,12.40
2023-03-31T12:41:45.684Z,12.80
2023-03-31T12:44:27.273Z,13.20
2023-03-31T12:47:33.506Z,13.50
2023-03-31T12:50:20.573Z,13.80
2023-03-31T12:52:59.796Z,14.30
2023-03-31T12:55:38.994Z,14.90
2023-03-31T12:58:38.588Z,15.60
2023-03-31T13:01:10.865Z,16.00
2023-03-31T13:04:09.565Z,16.30
2023-03-31T13:06:56.270Z,16.30
2023-03-31T13:09:52.795Z,15.90
2023-03-31T13:12:25.479Z,15.70
2023-03-31T13:15:00.048Z,15.50
2023-03-31T13:17:32.713Z,15.90
2023-03-31T13:20:28.896Z,16.20
2023-03-31T13:23:16.495Z,15.90
2023-03-31T13:25:51.253Z,15.40
2023-03-31T13:28:35.553Z,14.70
2023-03-31T13:31:06.637Z,14.10
2023-03-31T13:33:46.088Z,13.60
2023-03-31T13:36:50.926Z,13.20
2023-03-31T13:39:46.961Z,13.30
2023-03-31T13:42:29.229Z,13.50
2023-03-31T13:45:18.674Z,14.00
2023-03-31T13:48:01.912Z,14.90
2023-03-31T13:50:51.124Z,15.60
2023-03-31T13:53:44.164Z,15.80
2023-03-31T13:56:28.311Z,15.70
2023-03-31T13:59:24.103Z,15.50
2023-03-31T14:02:05.949Z,15.20
2023-03-31T14:05:01.102Z,14.90
2023-03-31T14:07:34.473Z,14.70
2023-03-31T14:10:06.297Z,14.50
2023-03-31T14:12:35.970Z,14.30
2023-03-31T14:15:06.238Z,14.10
2023-03-31T14:17:37.283Z,13.60
2023-03-31T14:20:27.486Z,13.10
2023-03-31T14:23:04.493Z,12.70
2023-03-31T14:25:44.993Z,12.40
2023-03-31T14:28:27.895Z,12.30
2023-03-31T14:31:10.850Z,12.50
2023-03-31T14:33:48.306Z,12.90
2023-03-31T14:36:23.108Z,13.40
2023-03-31T14:38:51.437Z,13.80
2023-03-31T14:41:29.371Z,14.10
2023-03-31T14:44:02.677Z,14.20
2023-03-31T14:46:33.179Z,14.10
2023-03-31T14:49:14.042Z,14.00
2023-03-31T14:51:45.116Z,14.00
2023-03-31T14:54:18.203Z,14.00
2023-03-31T14:56:56.832Z,14.00
2023-03-31T14:59:29.167Z,14.00
2023-03-31T15:02:00.926Z,14.20
2023-03-31T15:04:41.904Z,14.30
2023-03-31T15:07:12.297Z,14.30
2023-03-31T15:09:51.876Z,14.20
2023-03-31T15:12:24.205Z,14.20
2023-03-31T15:14:56.357Z,14.10
2023-03-31T15:17:27.028Z,14.10
2023-03-31T15:19:58.241Z,14.10
2023-03-31T15:22:28.817Z,14.00
2023-03-31T15:24:58.430Z,13.90
2023-03-31T15:27:37.451Z,13.80
2023-03-31T15:30:09.316Z,13.60
2023-03-31T15:32:39.423Z,13.40
2023-03-31T15:35:22.070Z,13.30
2023-03-31T15:37:53.370Z,13.00
2023-03-31T15:40:24.767Z,12.50
2023-03-31T15:45:49.964Z,11.50
2023-03-31T15:48:22.443Z,11.20
2023-03-31T15:50:51.761Z,11.00
2023-03-31T15:53:28.927Z,10.90
2023-03-31T15:56:03.234Z,10.80
2023-03-31T15:59:11.735Z,10.70
2023-03-31T16:01:51.239Z,10.80
2023-03-31T16:04:20.505Z,10.80
2023-03-31T16:06:55.792Z,10.90
2023-03-31T16:09:31.881Z,11.00
2023-03-31T16:12:07.134Z,11.10
2023-03-31T16:14:48.399Z,11.20
2023-03-31T16:17:30.394Z,11.30
2023-03-31T16:20:07.995Z,11.40
2023-03-31T16:22:41.631Z,11.50
2023-03-31T16:25:16.305Z,11.60
2023-03-31T16:27:58.607Z,11.60
2023-03-31T16:30:41.124Z,11.70
2023-03-31T16:33:14.904Z,11.70
2023-03-31T16:35:50.240Z,11.80
2023-03-31T16:38:24.110Z,11.80
2023-03-31T16:40:57.054Z,11.80
2023-03-31T16:43:30.574Z,11.80
2023-03-31T16:46:04.119Z,11.80
2023-03-31T16:48:37.645Z,11.80
2023-03-31T16:51:09.635Z,11.70
2023-03-31T16:53:42.254Z,11.70
2023-03-31T16:56:12.021Z,11.60
2023-03-31T16:58:41.151Z,11.60
2023-03-31T17:01:12.033Z,11.50
2023-03-31T17:03:42.246Z,11.50
2023-03-31T17:06:15.729Z,11.40
2023-03-31T17:08:48.924Z,11.40
2023-03-31T17:11:20.462Z,11.40
2023-03-31T17:13:52.157Z,11.20
2023-03-31T17:16:36.439Z,11.20
2023-03-31T17:19:15.464Z,11.20
2023-03-31T17:21:50.595Z,11.20
2023-03-31T17:24:27.691Z,11.10
2023-03-31T17:26:58.337Z,11.10
2023-03-31T17:29:30.036Z,11.00
2023-03-31T17:32:02.600Z,11.00
2023-03-31T17:34:36.173Z,10.90
2023-03-31T17:37:07.157Z,10.90
2023-03-31T17:39:37.521Z,10.80
2023-03-31T17:42:08.890Z,10.80
2023-03-31T17:44:38.956Z,10.70
2023-03-31T17:47:09.833Z,10.70
2023-03-31T17:49:39.419Z,10.80
2023-03-31T17:52:07.774Z,10.80
2023-03-31T17:54:38.158Z,10.80
2023-03-31T17:57:07.353Z,10.70
2023-03-31T17:59:37.490Z,10.60
2023-03-31T18:02:06.953Z,10.60
2023-03-31T18:04:37.898Z,10.50
2023-03-31T18:07:06.748Z,10.50
2023-03-31T18:09:36.609Z,10.50
2023-03-31T18:12:06.693Z,10.40
2023-03-31T18:14:34.966Z,10.40
2023-03-31T18:17:04.359Z,10.40
2023-03-31T18:19:33.799Z,10.40
2023-03-31T18:22:04.045Z,10.40
2023-03-31T18:24:32.801Z,10.40
2023-03-31T18:27:01.473Z,10.40
2023-03-31T18:29:29.761Z,10.40
2023-03-31T18:31:58.410Z,10.40
2023-03-31T18:34:27.153Z,10.40
2023-03-31T18:36:55.490Z,10.40
2023-03-31T18:39:25.552Z,10.40
2023-03-31T18:41:54.265Z,10.40
2023-03-31T18:44:23.048Z,10.40
2023-03-31T18:46:51.837Z,10.40
2023-03-31T18:49:20.713Z,10.30
2023-03-31T18:51:49.139Z,10.30
2023-03-31T18:54:17.939Z,10.30
2023-03-31T18:56:47.725Z,10.40
2023-03-31T18:59:16.872Z,10.30
2023-03-31T19:01:49.358Z,10.30
2023-03-31T19:04:17.861Z,10.30
2023-03-31T19:06:46.926Z,10.30
2023-03-31T19:09:15.444Z,10.30
2023-03-31T19:11:45.191Z,10.20
2023-03-31T19:14:14.738Z,10.20
2023-03-31T19:16:44.861Z,10.30
2023-03-31T19:19:14.467Z,10.30
2023-03-31T19:21:44.807Z,10.30
2023-03-31T19:24:13.754Z,10.30
2023-03-31T19:26:43.696Z,10.30
2023-03-31T19:29:12.709Z,10.30
2023-03-31T19:31:44.978Z,10.30
2023-03-31T19:34:14.044Z,10.30
2023-03-31T19:36:44.966Z,10.30
2023-03-31T19:39:13.910Z,10.30
2023-03-31T19:41:42.258Z,10.30
2023-03-31T19:44:10.568Z,10.30
2023-03-31T19:46:39.280Z,10.30
2023-03-31T19:49:10.573Z,10.30
2023-03-31T19:51:39.108Z,10.30
2023-03-31T19:54:07.698Z,10.40
2023-03-31T19:56:36.374Z,10.30
2023-03-31T19:59:05.356Z,10.40
2023-03-31T20:01:35.681Z,10.30
2023-03-31T20:04:04.707Z,10.30
2023-03-31T20:06:36.983Z,10.30
2023-03-31T20:09:09.499Z,10.30
2023-03-31T20:11:39.907Z,10.30
2023-03-31T20:14:09.962Z,10.20
2023-03-31T20:16:38.787Z,10.20
2023-03-31T20:19:08.861Z,10.20
2023-03-31T20:21:40.817Z,10.20
2023-03-31T20:24:16.900Z,10.10
2023-03-31T20:26:46.826Z,10.10
2023-03-31T20:29:15.151Z,10.00
2023-03-31T20:31:45.074Z,10.00
2023-03-31T20:34:15.604Z,9.90
2023-03-31T20:36:49.025Z,9.90
2023-03-31T20:39:18.339Z,9.90
2023-03-31T20:41:47.287Z,10.00
2023-03-31T20:44:16.089Z,10.00
2023-03-31T20:46:45.393Z,10.00
2023-03-31T20:49:14.154Z,10.00
2023-03-31T20:51:42.972Z,10.00
2023-03-31T20:54:13.251Z,10.00
2023-03-31T20:56:42.585Z,10.10
2023-03-31T20:59:13.008Z,10.10
2023-03-31T21:01:42.541Z,10.10
2023-03-31T21:04:12.526Z,10.10
2023-03-31T21:06:42.743Z,10.10
2023-03-31T21:09:12.903Z,10.10
2023-03-31T21:11:41.560Z,10.00
2023-03-31T21:14:13.990Z,10.00
2023-03-31T21:16:42.340Z,10.00
2023-03-31T21:19:10.685Z,10.00
2023-03-31T21:21:41.007Z,10.00
2023-03-31T21:24:11.147Z,10.10
2023-03-31T21:26:41.037Z,10.10
2023-03-31T21:29:09.673Z,10.10
2023-03-31T21:31:38.342Z,10.10
2023-03-31T21:34:06.753Z,10.10
2023-03-31T21:36:34.982Z,10.10
2023-03-31T21:39:03.523Z,10.10
2023-03-31T21:41:32.408Z,10.00
2023-03-31T21:44:03.219Z,10.00
2023-03-31T21:46:33.736Z,10.00
2023-03-31T21:49:02.758Z,10.00
2023-03-31T21:51:31.351Z,10.00
2023-03-31T21:53:59.719Z,10.00
2023-03-31T21:56:31.747Z,10.00
2023-03-31T21:59:04.263Z,10.00
2023-03-31T22:01:32.720Z,10.00
2023-03-31T22:04:01.631Z,10.00
2023-03-31T22:06:30.253Z,9.90
2023-03-31T22:08:58.666Z,9.80
2023-03-31T22:11:28.280Z,9.80
2023-03-31T22:13:57.326Z,9.80
2023-03-31T22:16:27.185Z,9.80
2023-03-31T22:18:56.264Z,9.80
2023-03-31T22:21:40.776Z,9.80
2023-03-31T22:24:12.253Z,9.80
2023-03-31T22:26:40.655Z,9.80
2023-03-31T22:29:08.929Z,9.80
2023-03-31T22:31:38.544Z,9.80
2023-03-31T22:34:06.820Z,9.80
2023-03-31T22:36:35.080Z,9.70
2023-03-31T22:39:03.890Z,9.70
2023-03-31T22:41:32.273Z,9.70
2023-03-31T22:44:00.787Z,9.70
2023-03-31T22:46:29.087Z,9.60
2023-03-31T22:48:58.978Z,9.60
2023-03-31T22:51:27.263Z,9.60
2023-03-31T22:53:56.062Z,9.60
2023-03-31T22:56:25.873Z,9.70
2023-03-31T22:58:56.741Z,9.70
2023-03-31T23:01:25.329Z,9.70
2023-03-31T23:03:53.687Z,9.70
2023-03-31T23:06:23.289Z,9.70
2023-03-31T23:08:51.790Z,9.70
2023-03-31T23:11:20.592Z,9.70
2023-03-31T23:13:48.937Z,9.70
2023-03-31T23:16:20.362Z,9.70
2023-03-31T23:18:49.436Z,9.70
2023-03-31T23:21:20.065Z,9.60
2023-03-31T23:23:53.530Z,9.70
2023-03-31T23:26:23.272Z,9.70
2023-03-31T23:28:52.986Z,9.70
2023-03-31T23:31:23.551Z,9.70
2023-03-31T23:33:51.865Z,9.70
2023-03-31T23:36:21.299Z,9.70
2023-03-31T23:38:52.888Z,9.60
2023-03-31T23:41:22.688Z,9.60
2023-03-31T23:43:51.777Z,9.60
2023-03-31T23:46:20.207Z,9.60
2023-03-31T23:48:48.578Z,9.50
2023-03-31T23:51:16.966Z,9.50
2023-03-31T23:53:45.322Z,9.50
2023-03-31T23:56:15.741Z,9.50
2023-03-31T23:58:45.014Z,9.60
